sensor_id;sensor_type;location;lat;lon;timestamp;P1;durP1;ratioP1;P2;durP2;ratioP2
24859;SDS011;12936;52.006;4.350;2022-08-21T00:01:44;10.25;;;1.92;;
24859;SDS011;12936;52.006;4.350;2022-08-21T00:04:13;5.95;;;1.95;;
24859;SDS011;12936;52.006;4.350;2022-08-21T00:06:47;8.95;;;2.28;;
24859;SDS011;12936;52.006;4.350;2022-08-21T00:09:18;9.75;;;2.60;;
24859;SDS011;12936;52.006;4.350;2022-08-21T00:11:48;10.57;;;2.28;;
24859;SDS011;12936;52.006;4.350;2022-08-21T00:14:17;9.75;;;2.08;;
24859;SDS011;12936;52.006;4.350;2022-08-21T00:16:45;8.18;;;1.98;;
24859;SDS011;12936;52.006;4.350;2022-08-21T00:19:14;6.88;;;2.15;;
24859;SDS011;12936;52.006;4.350;2022-08-21T00:21:42;8.30;;;2.22;;
24859;SDS011;12936;52.006;4.350;2022-08-21T00:24:11;10.57;;;2.25;;
24859;SDS011;12936;52.006;4.350;2022-08-21T00:26:39;7.70;;;1.70;;
24859;SDS011;12936;52.006;4.350;2022-08-21T00:29:10;7.80;;;1.83;;
24859;SDS011;12936;52.006;4.350;2022-08-21T00:31:39;7.32;;;1.88;;
24859;SDS011;12936;52.006;4.350;2022-08-21T00:34:08;10.38;;;2.38;;
24859;SDS011;12936;52.006;4.350;2022-08-21T00:36:36;9.18;;;1.90;;
24859;SDS011;12936;52.006;4.350;2022-08-21T00:39:05;5.75;;;1.73;;
24859;SDS011;12936;52.006;4.350;2022-08-21T00:41:35;5.88;;;1.65;;
24859;SDS011;12936;52.006;4.350;2022-08-21T00:44:05;7.68;;;1.95;;
24859;SDS011;12936;52.006;4.350;2022-08-21T00:46:37;5.53;;;1.75;;
24859;SDS011;12936;52.006;4.350;2022-08-21T00:49:06;7.55;;;1.80;;
24859;SDS011;12936;52.006;4.350;2022-08-21T00:51:36;9.68;;;1.80;;
24859;SDS011;12936;52.006;4.350;2022-08-21T00:54:06;8.80;;;2.20;;
24859;SDS011;12936;52.006;4.350;2022-08-21T00:56:44;9.23;;;2.00;;
24859;SDS011;12936;52.006;4.350;2022-08-21T00:59:13;10.68;;;2.30;;
24859;SDS011;12936;52.006;4.350;2022-08-21T01:01:44;9.27;;;2.00;;
24859;SDS011;12936;52.006;4.350;2022-08-21T01:04:12;6.63;;;1.90;;
24859;SDS011;12936;52.006;4.350;2022-08-21T01:06:41;5.00;;;1.40;;
24859;SDS011;12936;52.006;4.350;2022-08-21T01:09:10;7.50;;;1.73;;
24859;SDS011;12936;52.006;4.350;2022-08-21T01:11:39;6.43;;;2.22;;
24859;SDS011;12936;52.006;4.350;2022-08-21T01:14:08;9.60;;;1.90;;
24859;SDS011;12936;52.006;4.350;2022-08-21T01:16:38;7.60;;;2.40;;
24859;SDS011;12936;52.006;4.350;2022-08-21T01:19:08;3.88;;;1.65;;
24859;SDS011;12936;52.006;4.350;2022-08-21T01:21:38;7.63;;;1.75;;
24859;SDS011;12936;52.006;4.350;2022-08-21T01:24:09;6.93;;;2.00;;
24859;SDS011;12936;52.006;4.350;2022-08-21T01:26:37;9.07;;;2.03;;
24859;SDS011;12936;52.006;4.350;2022-08-21T01:29:07;7.13;;;2.03;;
24859;SDS011;12936;52.006;4.350;2022-08-21T01:31:37;7.95;;;1.92;;
24859;SDS011;12936;52.006;4.350;2022-08-21T01:34:05;8.18;;;1.95;;
24859;SDS011;12936;52.006;4.350;2022-08-21T01:36:34;6.60;;;1.88;;
24859;SDS011;12936;52.006;4.350;2022-08-21T01:39:04;8.18;;;1.70;;
24859;SDS011;12936;52.006;4.350;2022-08-21T01:41:33;7.32;;;1.85;;
24859;SDS011;12936;52.006;4.350;2022-08-21T01:44:01;7.80;;;1.80;;
24859;SDS011;12936;52.006;4.350;2022-08-21T01:46:30;8.13;;;2.20;;
24859;SDS011;12936;52.006;4.350;2022-08-21T01:48:58;11.25;;;2.00;;
24859;SDS011;12936;52.006;4.350;2022-08-21T01:51:27;6.07;;;1.80;;
24859;SDS011;12936;52.006;4.350;2022-08-21T01:53:55;12.43;;;2.22;;
24859;SDS011;12936;52.006;4.350;2022-08-21T01:56:26;9.82;;;2.40;;
24859;SDS011;12936;52.006;4.350;2022-08-21T01:58:55;9.38;;;2.00;;
24859;SDS011;12936;52.006;4.350;2022-08-21T02:01:23;10.07;;;2.65;;
24859;SDS011;12936;52.006;4.350;2022-08-21T02:03:52;5.93;;;1.80;;
24859;SDS011;12936;52.006;4.350;2022-08-21T02:06:20;8.00;;;2.10;;
24859;SDS011;12936;52.006;4.350;2022-08-21T02:08:49;11.82;;;2.17;;
24859;SDS011;12936;52.006;4.350;2022-08-21T02:11:17;8.48;;;2.00;;
24859;SDS011;12936;52.006;4.350;2022-08-21T02:13:47;7.40;;;2.30;;
24859;SDS011;12936;52.006;4.350;2022-08-21T02:16:15;9.35;;;2.22;;
24859;SDS011;12936;52.006;4.350;2022-08-21T02:18:44;12.73;;;1.90;;
24859;SDS011;12936;52.006;4.350;2022-08-21T02:21:13;7.38;;;2.17;;
24859;SDS011;12936;52.006;4.350;2022-08-21T02:23:41;8.35;;;2.03;;
24859;SDS011;12936;52.006;4.350;2022-08-21T02:26:10;8.98;;;2.30;;
24859;SDS011;12936;52.006;4.350;2022-08-21T02:28:39;9.57;;;2.38;;
24859;SDS011;12936;52.006;4.350;2022-08-21T02:31:09;9.02;;;2.20;;
24859;SDS011;12936;52.006;4.350;2022-08-21T02:33:38;8.43;;;2.65;;
24859;SDS011;12936;52.006;4.350;2022-08-21T02:36:07;8.00;;;2.25;;
24859;SDS011;12936;52.006;4.350;2022-08-21T02:38:36;8.50;;;2.30;;
24859;SDS011;12936;52.006;4.350;2022-08-21T02:41:05;9.45;;;2.58;;
24859;SDS011;12936;52.006;4.350;2022-08-21T02:43:33;5.45;;;2.25;;
24859;SDS011;12936;52.006;4.350;2022-08-21T02:46:03;7.65;;;1.73;;
24859;SDS011;12936;52.006;4.350;2022-08-21T02:48:33;11.07;;;2.20;;
24859;SDS011;12936;52.006;4.350;2022-08-21T02:51:02;6.93;;;2.15;;
24859;SDS011;12936;52.006;4.350;2022-08-21T02:53:31;6.32;;;2.00;;
24859;SDS011;12936;52.006;4.350;2022-08-21T02:56:01;8.25;;;2.47;;
24859;SDS011;12936;52.006;4.350;2022-08-21T02:58:31;5.53;;;1.98;;
24859;SDS011;12936;52.006;4.350;2022-08-21T03:01:00;7.45;;;2.08;;
24859;SDS011;12936;52.006;4.350;2022-08-21T03:03:32;7.18;;;2.45;;
24859;SDS011;12936;52.006;4.350;2022-08-21T03:06:01;9.00;;;2.40;;
24859;SDS011;12936;52.006;4.350;2022-08-21T03:08:30;8.40;;;2.20;;
24859;SDS011;12936;52.006;4.350;2022-08-21T03:10:58;9.32;;;2.67;;
24859;SDS011;12936;52.006;4.350;2022-08-21T03:13:27;8.95;;;2.28;;
24859;SDS011;12936;52.006;4.350;2022-08-21T03:15:56;7.63;;;2.60;;
24859;SDS011;12936;52.006;4.350;2022-08-21T03:18:25;6.47;;;2.55;;
24859;SDS011;12936;52.006;4.350;2022-08-21T03:20:55;9.27;;;2.50;;
24859;SDS011;12936;52.006;4.350;2022-08-21T03:23:23;8.98;;;3.05;;
24859;SDS011;12936;52.006;4.350;2022-08-21T03:25:58;10.60;;;3.03;;
24859;SDS011;12936;52.006;4.350;2022-08-21T03:28:26;8.10;;;2.65;;
24859;SDS011;12936;52.006;4.350;2022-08-21T03:30:55;11.63;;;3.03;;
24859;SDS011;12936;52.006;4.350;2022-08-21T03:33:23;13.00;;;2.72;;
24859;SDS011;12936;52.006;4.350;2022-08-21T03:35:57;15.73;;;3.50;;
24859;SDS011;12936;52.006;4.350;2022-08-21T03:38:27;9.43;;;2.80;;
24859;SDS011;12936;52.006;4.350;2022-08-21T03:40:56;7.47;;;2.70;;
24859;SDS011;12936;52.006;4.350;2022-08-21T03:43:24;9.93;;;3.13;;
24859;SDS011;12936;52.006;4.350;2022-08-21T03:45:56;10.50;;;3.60;;
24859;SDS011;12936;52.006;4.350;2022-08-21T03:48:24;7.93;;;2.67;;
24859;SDS011;12936;52.006;4.350;2022-08-21T03:50:53;9.60;;;3.40;;
24859;SDS011;12936;52.006;4.350;2022-08-21T03:53:22;10.48;;;3.22;;
24859;SDS011;12936;52.006;4.350;2022-08-21T03:55:51;8.23;;;2.90;;
24859;SDS011;12936;52.006;4.350;2022-08-21T03:58:21;6.18;;;2.85;;
24859;SDS011;12936;52.006;4.350;2022-08-21T04:00:52;11.32;;;3.47;;
24859;SDS011;12936;52.006;4.350;2022-08-21T04:03:21;13.18;;;3.03;;
24859;SDS011;12936;52.006;4.350;2022-08-21T04:05:49;11.00;;;3.22;;
24859;SDS011;12936;52.006;4.350;2022-08-21T04:08:18;9.73;;;3.30;;
24859;SDS011;12936;52.006;4.350;2022-08-21T04:10:48;12.13;;;2.90;;
24859;SDS011;12936;52.006;4.350;2022-08-21T04:13:17;15.05;;;3.15;;
24859;SDS011;12936;52.006;4.350;2022-08-21T04:15:46;7.95;;;3.17;;
24859;SDS011;12936;52.006;4.350;2022-08-21T04:18:14;10.23;;;3.40;;
24859;SDS011;12936;52.006;4.350;2022-08-21T04:20:43;9.52;;;3.35;;
24859;SDS011;12936;52.006;4.350;2022-08-21T04:23:15;7.53;;;2.95;;
24859;SDS011;12936;52.006;4.350;2022-08-21T04:25:51;11.93;;;3.10;;
24859;SDS011;12936;52.006;4.350;2022-08-21T04:28:20;9.82;;;3.10;;
24859;SDS011;12936;52.006;4.350;2022-08-21T04:30:54;15.57;;;3.35;;
24859;SDS011;12936;52.006;4.350;2022-08-21T04:33:22;12.20;;;3.05;;
24859;SDS011;12936;52.006;4.350;2022-08-21T04:35:51;10.63;;;3.00;;
24859;SDS011;12936;52.006;4.350;2022-08-21T04:38:20;10.13;;;3.10;;
24859;SDS011;12936;52.006;4.350;2022-08-21T04:40:49;8.70;;;3.08;;
24859;SDS011;12936;52.006;4.350;2022-08-21T04:43:19;11.82;;;3.33;;
24859;SDS011;12936;52.006;4.350;2022-08-21T04:45:50;16.75;;;4.00;;
24859;SDS011;12936;52.006;4.350;2022-08-21T04:48:19;14.30;;;3.70;;
24859;SDS011;12936;52.006;4.350;2022-08-21T04:50:49;6.28;;;2.92;;
24859;SDS011;12936;52.006;4.350;2022-08-21T04:53:19;8.57;;;3.40;;
24859;SDS011;12936;52.006;4.350;2022-08-21T04:55:48;13.98;;;3.90;;
24859;SDS011;12936;52.006;4.350;2022-08-21T04:58:18;11.68;;;4.15;;
24859;SDS011;12936;52.006;4.350;2022-08-21T05:00:48;12.45;;;3.53;;
24859;SDS011;12936;52.006;4.350;2022-08-21T05:03:16;10.35;;;3.47;;
24859;SDS011;12936;52.006;4.350;2022-08-21T05:05:45;10.85;;;3.90;;
24859;SDS011;12936;52.006;4.350;2022-08-21T05:08:14;13.63;;;4.00;;
24859;SDS011;12936;52.006;4.350;2022-08-21T05:10:43;8.75;;;3.70;;
24859;SDS011;12936;52.006;4.350;2022-08-21T05:13:12;10.27;;;4.10;;
24859;SDS011;12936;52.006;4.350;2022-08-21T05:15:42;12.45;;;4.00;;
24859;SDS011;12936;52.006;4.350;2022-08-21T05:18:10;13.18;;;3.78;;
24859;SDS011;12936;52.006;4.350;2022-08-21T05:20:38;9.15;;;3.50;;
24859;SDS011;12936;52.006;4.350;2022-08-21T05:23:07;10.95;;;3.75;;
24859;SDS011;12936;52.006;4.350;2022-08-21T05:25:35;13.63;;;3.53;;
24859;SDS011;12936;52.006;4.350;2022-08-21T05:28:04;9.90;;;3.67;;
24859;SDS011;12936;52.006;4.350;2022-08-21T05:30:33;13.85;;;3.72;;
24859;SDS011;12936;52.006;4.350;2022-08-21T05:33:03;11.27;;;3.28;;
24859;SDS011;12936;52.006;4.350;2022-08-21T05:35:32;18.13;;;4.00;;
24859;SDS011;12936;52.006;4.350;2022-08-21T05:38:01;12.20;;;3.40;;
24859;SDS011;12936;52.006;4.350;2022-08-21T05:40:30;22.10;;;4.35;;
24859;SDS011;12936;52.006;4.350;2022-08-21T05:42:58;12.18;;;3.95;;
24859;SDS011;12936;52.006;4.350;2022-08-21T05:45:27;14.55;;;3.70;;
24859;SDS011;12936;52.006;4.350;2022-08-21T05:48:11;12.85;;;3.70;;
24859;SDS011;12936;52.006;4.350;2022-08-21T05:50:40;13.73;;;4.13;;
24859;SDS011;12936;52.006;4.350;2022-08-21T05:53:08;16.27;;;4.28;;
24859;SDS011;12936;52.006;4.350;2022-08-21T05:55:37;11.65;;;3.60;;
24859;SDS011;12936;52.006;4.350;2022-08-21T05:58:11;15.68;;;4.47;;
24859;SDS011;12936;52.006;4.350;2022-08-21T06:00:40;13.38;;;3.83;;
24859;SDS011;12936;52.006;4.350;2022-08-21T06:03:14;9.88;;;3.38;;
24859;SDS011;12936;52.006;4.350;2022-08-21T06:05:43;11.38;;;3.80;;
24859;SDS011;12936;52.006;4.350;2022-08-21T06:08:12;14.73;;;4.35;;
24859;SDS011;12936;52.006;4.350;2022-08-21T06:10:40;12.65;;;3.25;;
24859;SDS011;12936;52.006;4.350;2022-08-21T06:13:09;10.35;;;3.72;;
24859;SDS011;12936;52.006;4.350;2022-08-21T06:15:38;16.58;;;4.28;;
24859;SDS011;12936;52.006;4.350;2022-08-21T06:18:06;12.18;;;3.47;;
24859;SDS011;12936;52.006;4.350;2022-08-21T06:20:36;13.95;;;3.63;;
24859;SDS011;12936;52.006;4.350;2022-08-21T06:23:05;11.68;;;3.40;;
24859;SDS011;12936;52.006;4.350;2022-08-21T06:25:33;9.25;;;3.35;;
24859;SDS011;12936;52.006;4.350;2022-08-21T06:28:02;14.32;;;3.60;;
24859;SDS011;12936;52.006;4.350;2022-08-21T06:30:31;11.05;;;3.63;;
24859;SDS011;12936;52.006;4.350;2022-08-21T06:32:59;11.40;;;3.88;;
24859;SDS011;12936;52.006;4.350;2022-08-21T06:35:28;13.52;;;3.75;;
24859;SDS011;12936;52.006;4.350;2022-08-21T06:37:57;9.32;;;3.15;;
24859;SDS011;12936;52.006;4.350;2022-08-21T06:40:26;13.05;;;3.83;;
24859;SDS011;12936;52.006;4.350;2022-08-21T06:42:55;11.40;;;3.83;;
24859;SDS011;12936;52.006;4.350;2022-08-21T06:45:26;11.18;;;3.47;;
24859;SDS011;12936;52.006;4.350;2022-08-21T06:47:57;11.30;;;3.78;;
24859;SDS011;12936;52.006;4.350;2022-08-21T06:50:26;11.43;;;3.67;;
24859;SDS011;12936;52.006;4.350;2022-08-21T06:53:02;14.52;;;3.70;;
24859;SDS011;12936;52.006;4.350;2022-08-21T06:55:31;11.50;;;3.30;;
24859;SDS011;12936;52.006;4.350;2022-08-21T06:57:59;12.30;;;3.60;;
24859;SDS011;12936;52.006;4.350;2022-08-21T07:00:28;14.55;;;3.30;;
24859;SDS011;12936;52.006;4.350;2022-08-21T07:02:56;11.88;;;3.33;;
24859;SDS011;12936;52.006;4.350;2022-08-21T07:05:25;11.45;;;3.10;;
24859;SDS011;12936;52.006;4.350;2022-08-21T07:07:53;9.75;;;2.60;;
24859;SDS011;12936;52.006;4.350;2022-08-21T07:10:24;13.27;;;3.42;;
24859;SDS011;12936;52.006;4.350;2022-08-21T07:12:53;8.43;;;3.30;;
24859;SDS011;12936;52.006;4.350;2022-08-21T07:15:27;11.65;;;3.42;;
24859;SDS011;12936;52.006;4.350;2022-08-21T07:17:56;11.68;;;2.85;;
24859;SDS011;12936;52.006;4.350;2022-08-21T07:20:25;14.15;;;3.45;;
24859;SDS011;12936;52.006;4.350;2022-08-21T07:22:53;15.40;;;3.00;;
24859;SDS011;12936;52.006;4.350;2022-08-21T07:25:24;13.27;;;3.15;;
24859;SDS011;12936;52.006;4.350;2022-08-21T07:27:52;14.38;;;3.25;;
24859;SDS011;12936;52.006;4.350;2022-08-21T07:30:21;9.85;;;3.22;;
24859;SDS011;12936;52.006;4.350;2022-08-21T07:32:50;13.75;;;2.95;;
24859;SDS011;12936;52.006;4.350;2022-08-21T07:35:19;14.88;;;2.63;;
24859;SDS011;12936;52.006;4.350;2022-08-21T07:37:47;13.77;;;2.70;;
24859;SDS011;12936;52.006;4.350;2022-08-21T07:40:16;13.07;;;2.90;;
24859;SDS011;12936;52.006;4.350;2022-08-21T07:42:46;16.55;;;3.25;;
24859;SDS011;12936;52.006;4.350;2022-08-21T07:45:16;10.55;;;2.28;;
24859;SDS011;12936;52.006;4.350;2022-08-21T07:47:45;11.38;;;2.47;;
24859;SDS011;12936;52.006;4.350;2022-08-21T07:50:13;9.02;;;2.28;;
24859;SDS011;12936;52.006;4.350;2022-08-21T07:52:42;10.02;;;2.50;;
24859;SDS011;12936;52.006;4.350;2022-08-21T07:55:11;13.52;;;2.65;;
24859;SDS011;12936;52.006;4.350;2022-08-21T07:57:40;10.48;;;2.50;;
24859;SDS011;12936;52.006;4.350;2022-08-21T08:00:11;10.55;;;2.58;;
24859;SDS011;12936;52.006;4.350;2022-08-21T08:02:40;15.90;;;3.03;;
24859;SDS011;12936;52.006;4.350;2022-08-21T08:05:09;10.63;;;2.67;;
24859;SDS011;12936;52.006;4.350;2022-08-21T08:07:38;7.75;;;2.60;;
24859;SDS011;12936;52.006;4.350;2022-08-21T08:10:07;13.25;;;2.28;;
24859;SDS011;12936;52.006;4.350;2022-08-21T08:12:37;10.70;;;2.67;;
24859;SDS011;12936;52.006;4.350;2022-08-21T08:15:06;10.27;;;2.78;;
24859;SDS011;12936;52.006;4.350;2022-08-21T08:17:36;11.05;;;2.63;;
24859;SDS011;12936;52.006;4.350;2022-08-21T08:20:05;10.82;;;2.40;;
24859;SDS011;12936;52.006;4.350;2022-08-21T08:22:34;12.60;;;2.17;;
24859;SDS011;12936;52.006;4.350;2022-08-21T08:25:03;8.75;;;2.70;;
24859;SDS011;12936;52.006;4.350;2022-08-21T08:27:35;9.57;;;2.20;;
24859;SDS011;12936;52.006;4.350;2022-08-21T08:30:04;6.20;;;1.83;;
24859;SDS011;12936;52.006;4.350;2022-08-21T08:32:32;9.30;;;2.40;;
24859;SDS011;12936;52.006;4.350;2022-08-21T08:35:02;9.48;;;2.50;;
24859;SDS011;12936;52.006;4.350;2022-08-21T08:37:31;11.10;;;2.05;;
24859;SDS011;12936;52.006;4.350;2022-08-21T08:40:00;13.35;;;3.20;;
24859;SDS011;12936;52.006;4.350;2022-08-21T08:42:31;11.25;;;2.53;;
24859;SDS011;12936;52.006;4.350;2022-08-21T08:45:02;6.05;;;1.67;;
24859;SDS011;12936;52.006;4.350;2022-08-21T08:47:31;8.27;;;1.50;;
24859;SDS011;12936;52.006;4.350;2022-08-21T08:50:03;6.97;;;2.28;;
24859;SDS011;12936;52.006;4.350;2022-08-21T08:52:33;4.25;;;1.70;;
24859;SDS011;12936;52.006;4.350;2022-08-21T08:55:03;11.52;;;2.00;;
24859;SDS011;12936;52.006;4.350;2022-08-21T08:57:32;7.60;;;1.90;;
24859;SDS011;12936;52.006;4.350;2022-08-21T09:00:01;9.13;;;1.88;;
24859;SDS011;12936;52.006;4.350;2022-08-21T09:02:33;9.43;;;1.83;;
24859;SDS011;12936;52.006;4.350;2022-08-21T09:05:03;7.55;;;1.52;;
24859;SDS011;12936;52.006;4.350;2022-08-21T09:07:34;7.20;;;1.50;;
24859;SDS011;12936;52.006;4.350;2022-08-21T09:10:09;7.45;;;1.90;;
24859;SDS011;12936;52.006;4.350;2022-08-21T09:12:39;6.32;;;1.50;;
24859;SDS011;12936;52.006;4.350;2022-08-21T09:15:12;6.93;;;2.45;;
24859;SDS011;12936;52.006;4.350;2022-08-21T09:17:49;4.82;;;1.50;;
24859;SDS011;12936;52.006;4.350;2022-08-21T09:20:23;6.30;;;1.20;;
24859;SDS011;12936;52.006;4.350;2022-08-21T09:22:57;6.03;;;2.08;;
24859;SDS011;12936;52.006;4.350;2022-08-21T09:25:28;5.50;;;1.50;;
24859;SDS011;12936;52.006;4.350;2022-08-21T09:27:57;8.38;;;1.52;;
24859;SDS011;12936;52.006;4.350;2022-08-21T09:30:27;8.77;;;1.58;;
24859;SDS011;12936;52.006;4.350;2022-08-21T09:32:56;4.40;;;1.50;;
24859;SDS011;12936;52.006;4.350;2022-08-21T09:35:27;9.20;;;2.00;;
24859;SDS011;12936;52.006;4.350;2022-08-21T09:37:56;10.13;;;1.92;;
24859;SDS011;12936;52.006;4.350;2022-08-21T09:40:33;9.52;;;1.75;;
24859;SDS011;12936;52.006;4.350;2022-08-21T09:43:02;10.75;;;1.70;;
24859;SDS011;12936;52.006;4.350;2022-08-21T09:45:33;9.23;;;2.40;;
24859;SDS011;12936;52.006;4.350;2022-08-21T09:48:08;11.25;;;2.38;;
24859;SDS011;12936;52.006;4.350;2022-08-21T09:50:38;9.40;;;1.90;;
24859;SDS011;12936;52.006;4.350;2022-08-21T09:53:14;10.25;;;1.95;;
24859;SDS011;12936;52.006;4.350;2022-08-21T09:55:47;13.20;;;2.65;;
24859;SDS011;12936;52.006;4.350;2022-08-21T09:58:34;7.60;;;1.85;;
24859;SDS011;12936;52.006;4.350;2022-08-21T10:01:04;7.15;;;1.98;;
24859;SDS011;12936;52.006;4.350;2022-08-21T10:03:33;9.05;;;1.77;;
24859;SDS011;12936;52.006;4.350;2022-08-21T10:06:03;9.35;;;1.88;;
24859;SDS011;12936;52.006;4.350;2022-08-21T10:08:36;8.63;;;1.52;;
24859;SDS011;12936;52.006;4.350;2022-08-21T10:11:05;7.88;;;2.03;;
24859;SDS011;12936;52.006;4.350;2022-08-21T10:13:39;10.48;;;3.25;;
24859;SDS011;12936;52.006;4.350;2022-08-21T10:16:18;7.25;;;1.75;;
24859;SDS011;12936;52.006;4.350;2022-08-21T10:18:53;10.95;;;1.55;;
24859;SDS011;12936;52.006;4.350;2022-08-21T10:21:27;6.40;;;2.00;;
24859;SDS011;12936;52.006;4.350;2022-08-21T10:24:02;14.45;;;1.98;;
24859;SDS011;12936;52.006;4.350;2022-08-21T10:26:56;9.60;;;2.60;;
24859;SDS011;12936;52.006;4.350;2022-08-21T10:29:35;15.88;;;2.33;;
24859;SDS011;12936;52.006;4.350;2022-08-21T10:32:09;7.78;;;1.50;;
24859;SDS011;12936;52.006;4.350;2022-08-21T10:34:52;11.95;;;1.38;;
24859;SDS011;12936;52.006;4.350;2022-08-21T10:37:26;6.30;;;1.70;;
24859;SDS011;12936;52.006;4.350;2022-08-21T10:40:02;6.95;;;1.45;;
24859;SDS011;12936;52.006;4.350;2022-08-21T10:42:35;6.35;;;1.45;;
24859;SDS011;12936;52.006;4.350;2022-08-21T10:45:10;6.85;;;1.52;;
24859;SDS011;12936;52.006;4.350;2022-08-21T10:47:41;7.63;;;1.30;;
24859;SDS011;12936;52.006;4.350;2022-08-21T10:50:12;27.10;;;2.10;;
24859;SDS011;12936;52.006;4.350;2022-08-21T10:52:53;138.18;;;7.07;;
24859;SDS011;12936;52.006;4.350;2022-08-21T10:55:26;5.68;;;1.42;;
24859;SDS011;12936;52.006;4.350;2022-08-21T10:57:57;6.68;;;1.35;;
24859;SDS011;12936;52.006;4.350;2022-08-21T11:00:26;5.68;;;1.17;;
24859;SDS011;12936;52.006;4.350;2022-08-21T11:02:57;4.97;;;1.10;;
24859;SDS011;12936;52.006;4.350;2022-08-21T11:05:27;7.25;;;1.50;;
24859;SDS011;12936;52.006;4.350;2022-08-21T11:08:02;5.93;;;1.40;;
24859;SDS011;12936;52.006;4.350;2022-08-21T11:10:33;7.95;;;1.23;;
24859;SDS011;12936;52.006;4.350;2022-08-21T11:13:07;3.88;;;1.10;;
24859;SDS011;12936;52.006;4.350;2022-08-21T11:15:42;6.18;;;1.50;;
24859;SDS011;12936;52.006;4.350;2022-08-21T11:18:15;7.05;;;1.50;;
24859;SDS011;12936;52.006;4.350;2022-08-21T11:20:50;118.25;;;6.85;;
24859;SDS011;12936;52.006;4.350;2022-08-21T11:23:22;14.35;;;1.80;;
24859;SDS011;12936;52.006;4.350;2022-08-21T11:25:52;5.90;;;1.08;;
24859;SDS011;12936;52.006;4.350;2022-08-21T11:28:22;7.65;;;1.02;;
24859;SDS011;12936;52.006;4.350;2022-08-21T11:30:56;22.85;;;2.08;;
24859;SDS011;12936;52.006;4.350;2022-08-21T11:33:31;4.78;;;1.55;;
24859;SDS011;12936;52.006;4.350;2022-08-21T11:36:02;3.10;;;1.08;;
24859;SDS011;12936;52.006;4.350;2022-08-21T11:38:39;5.00;;;1.33;;
24859;SDS011;12936;52.006;4.350;2022-08-21T11:41:12;3.97;;;1.15;;
24859;SDS011;12936;52.006;4.350;2022-08-21T11:43:41;3.85;;;1.10;;
24859;SDS011;12936;52.006;4.350;2022-08-21T11:46:16;4.18;;;0.93;;
24859;SDS011;12936;52.006;4.350;2022-08-21T11:48:49;5.00;;;1.13;;
24859;SDS011;12936;52.006;4.350;2022-08-21T11:51:22;5.55;;;1.00;;
24859;SDS011;12936;52.006;4.350;2022-08-21T11:53:55;4.82;;;1.15;;
24859;SDS011;12936;52.006;4.350;2022-08-21T11:56:28;4.82;;;1.00;;
24859;SDS011;12936;52.006;4.350;2022-08-21T11:58:59;4.35;;;0.95;;
24859;SDS011;12936;52.006;4.350;2022-08-21T12:01:30;3.85;;;1.20;;
24859;SDS011;12936;52.006;4.350;2022-08-21T12:04:01;5.30;;;1.20;;
24859;SDS011;12936;52.006;4.350;2022-08-21T12:06:32;4.10;;;1.00;;
24859;SDS011;12936;52.006;4.350;2022-08-21T12:09:04;4.20;;;1.10;;
24859;SDS011;12936;52.006;4.350;2022-08-21T12:11:43;7.53;;;1.17;;
24859;SDS011;12936;52.006;4.350;2022-08-21T12:14:14;4.47;;;1.20;;
24859;SDS011;12936;52.006;4.350;2022-08-21T12:16:43;8.38;;;1.30;;
24859;SDS011;12936;52.006;4.350;2022-08-21T12:19:13;5.78;;;1.27;;
24859;SDS011;12936;52.006;4.350;2022-08-21T12:21:48;6.90;;;1.15;;
24859;SDS011;12936;52.006;4.350;2022-08-21T12:24:19;7.82;;;1.45;;
24859;SDS011;12936;52.006;4.350;2022-08-21T12:26:53;4.47;;;1.02;;
24859;SDS011;12936;52.006;4.350;2022-08-21T12:29:23;5.35;;;1.23;;
24859;SDS011;12936;52.006;4.350;2022-08-21T12:31:56;5.28;;;1.25;;
24859;SDS011;12936;52.006;4.350;2022-08-21T12:34:28;7.10;;;1.70;;
24859;SDS011;12936;52.006;4.350;2022-08-21T12:36:59;7.22;;;1.17;;
24859;SDS011;12936;52.006;4.350;2022-08-21T12:39:30;4.47;;;1.08;;
24859;SDS011;12936;52.006;4.350;2022-08-21T12:42:00;4.43;;;1.00;;
24859;SDS011;12936;52.006;4.350;2022-08-21T12:44:35;8.68;;;1.10;;
24859;SDS011;12936;52.006;4.350;2022-08-21T12:47:11;4.88;;;1.10;;
24859;SDS011;12936;52.006;4.350;2022-08-21T12:49:43;2.25;;;0.80;;
24859;SDS011;12936;52.006;4.350;2022-08-21T12:52:16;7.53;;;1.40;;
24859;SDS011;12936;52.006;4.350;2022-08-21T12:54:48;7.20;;;1.00;;
24859;SDS011;12936;52.006;4.350;2022-08-21T12:57:18;5.57;;;1.17;;
24859;SDS011;12936;52.006;4.350;2022-08-21T12:59:54;5.63;;;1.42;;
24859;SDS011;12936;52.006;4.350;2022-08-21T13:02:23;3.78;;;1.15;;
24859;SDS011;12936;52.006;4.350;2022-08-21T13:04:52;7.72;;;1.50;;
24859;SDS011;12936;52.006;4.350;2022-08-21T13:07:25;9.57;;;1.05;;
24859;SDS011;12936;52.006;4.350;2022-08-21T13:09:57;7.20;;;2.03;;
24859;SDS011;12936;52.006;4.350;2022-08-21T13:12:26;5.85;;;1.27;;
24859;SDS011;12936;52.006;4.350;2022-08-21T13:14:59;5.45;;;1.30;;
24859;SDS011;12936;52.006;4.350;2022-08-21T13:17:30;5.68;;;1.42;;
24859;SDS011;12936;52.006;4.350;2022-08-21T13:20:00;9.18;;;1.60;;
24859;SDS011;12936;52.006;4.350;2022-08-21T13:22:29;7.18;;;1.30;;
24859;SDS011;12936;52.006;4.350;2022-08-21T13:25:02;5.13;;;1.15;;
24859;SDS011;12936;52.006;4.350;2022-08-21T13:27:33;3.63;;;1.20;;
24859;SDS011;12936;52.006;4.350;2022-08-21T13:30:06;5.97;;;1.30;;
24859;SDS011;12936;52.006;4.350;2022-08-21T13:32:35;7.75;;;1.30;;
24859;SDS011;12936;52.006;4.350;2022-08-21T13:37:51;6.40;;;1.40;;
24859;SDS011;12936;52.006;4.350;2022-08-21T13:40:23;5.22;;;1.30;;
24859;SDS011;12936;52.006;4.350;2022-08-21T13:42:52;8.43;;;1.20;;
24859;SDS011;12936;52.006;4.350;2022-08-21T13:45:24;9.07;;;1.50;;
24859;SDS011;12936;52.006;4.350;2022-08-21T13:47:53;10.98;;;1.63;;
24859;SDS011;12936;52.006;4.350;2022-08-21T13:50:23;8.02;;;1.30;;
24859;SDS011;12936;52.006;4.350;2022-08-21T13:52:57;6.07;;;1.30;;
24859;SDS011;12936;52.006;4.350;2022-08-21T13:55:35;5.60;;;1.60;;
24859;SDS011;12936;52.006;4.350;2022-08-21T13:58:03;7.90;;;1.80;;
24859;SDS011;12936;52.006;4.350;2022-08-21T14:00:34;5.88;;;1.42;;
24859;SDS011;12936;52.006;4.350;2022-08-21T14:03:04;7.53;;;1.83;;
24859;SDS011;12936;52.006;4.350;2022-08-21T14:05:34;3.92;;;1.42;;
24859;SDS011;12936;52.006;4.350;2022-08-21T14:08:05;12.35;;;2.05;;
24859;SDS011;12936;52.006;4.350;2022-08-21T14:10:37;9.02;;;1.73;;
24859;SDS011;12936;52.006;4.350;2022-08-21T14:13:14;7.78;;;1.95;;
24859;SDS011;12936;52.006;4.350;2022-08-21T14:15:54;6.85;;;1.52;;
24859;SDS011;12936;52.006;4.350;2022-08-21T14:18:23;10.40;;;1.88;;
24859;SDS011;12936;52.006;4.350;2022-08-21T14:20:57;6.85;;;1.38;;
24859;SDS011;12936;52.006;4.350;2022-08-21T14:23:31;7.93;;;1.63;;
24859;SDS011;12936;52.006;4.350;2022-08-21T14:26:02;5.80;;;1.55;;
24859;SDS011;12936;52.006;4.350;2022-08-21T14:28:31;8.48;;;1.88;;
24859;SDS011;12936;52.006;4.350;2022-08-21T14:31:10;6.88;;;2.10;;
24859;SDS011;12936;52.006;4.350;2022-08-21T14:33:39;5.78;;;1.73;;
24859;SDS011;12936;52.006;4.350;2022-08-21T14:36:08;6.25;;;1.77;;
24859;SDS011;12936;52.006;4.350;2022-08-21T14:38:37;8.00;;;1.98;;
24859;SDS011;12936;52.006;4.350;2022-08-21T14:41:10;7.93;;;1.65;;
24859;SDS011;12936;52.006;4.350;2022-08-21T14:43:43;9.65;;;1.70;;
24859;SDS011;12936;52.006;4.350;2022-08-21T14:46:12;6.57;;;1.67;;
24859;SDS011;12936;52.006;4.350;2022-08-21T14:48:40;8.13;;;1.88;;
24859;SDS011;12936;52.006;4.350;2022-08-21T14:51:09;6.10;;;1.90;;
24859;SDS011;12936;52.006;4.350;2022-08-21T14:53:37;7.97;;;1.70;;
24859;SDS011;12936;52.006;4.350;2022-08-21T14:56:05;9.45;;;1.70;;
24859;SDS011;12936;52.006;4.350;2022-08-21T14:58:36;5.78;;;1.80;;
24859;SDS011;12936;52.006;4.350;2022-08-21T15:01:05;8.48;;;1.75;;
24859;SDS011;12936;52.006;4.350;2022-08-21T15:03:34;9.02;;;2.28;;
24859;SDS011;12936;52.006;4.350;2022-08-21T15:06:03;10.48;;;2.00;;